sensor_id;sensor_type;location;lat;lon;timestamp;P1;durP1;ratioP1;P2;durP2;ratioP2
13847;SDS011;6994;49.752;6.094;2023-06-14T00:01:38;4.43;;;4.03;;
13847;SDS011;6994;49.752;6.094;2023-06-14T00:04:06;5.35;;;3.92;;
13847;SDS011;6994;49.752;6.094;2023-06-14T00:06:33;5.75;;;3.95;;
13847;SDS011;6994;49.752;6.094;2023-06-14T00:09:00;8.65;;;4.35;;
13847;SDS011;6994;49.752;6.094;2023-06-14T00:11:27;7.70;;;4.20;;
13847;SDS011;6994;49.752;6.094;2023-06-14T00:13:55;4.57;;;3.60;;
13847;SDS011;6994;49.752;6.094;2023-06-14T00:16:22;6.25;;;3.80;;
13847;SDS011;6994;49.752;6.094;2023-06-14T00:18:49;6.05;;;4.50;;
13847;SDS011;6994;49.752;6.094;2023-06-14T00:21:16;5.05;;;4.60;;
13847;SDS011;6994;49.752;6.094;2023-06-14T00:23:43;8.00;;;4.53;;
13847;SDS011;6994;49.752;6.094;2023-06-14T00:26:11;4.70;;;4.28;;
13847;SDS011;6994;49.752;6.094;2023-06-14T00:28:38;4.18;;;3.78;;
13847;SDS011;6994;49.752;6.094;2023-06-14T00:31:05;5.15;;;4.60;;
13847;SDS011;6994;49.752;6.094;2023-06-14T00:33:33;5.07;;;4.32;;
13847;SDS011;6994;49.752;6.094;2023-06-14T00:36:00;6.43;;;4.12;;
13847;SDS011;6994;49.752;6.094;2023-06-14T00:38:27;8.48;;;4.90;;
13847;SDS011;6994;49.752;6.094;2023-06-14T00:40:55;7.43;;;4.47;;
13847;SDS011;6994;49.752;6.094;2023-06-14T00:43:23;4.85;;;4.28;;
13847;SDS011;6994;49.752;6.094;2023-06-14T00:45:50;4.78;;;4.37;;
13847;SDS011;6994;49.752;6.094;2023-06-14T00:48:17;5.60;;;5.05;;
13847;SDS011;6994;49.752;6.094;2023-06-14T00:50:44;6.45;;;5.30;;
13847;SDS011;6994;49.752;6.094;2023-06-14T00:53:15;4.78;;;4.37;;
13847;SDS011;6994;49.752;6.094;2023-06-14T00:55:42;5.40;;;4.90;;
13847;SDS011;6994;49.752;6.094;2023-06-14T00:58:09;5.82;;;4.72;;
13847;SDS011;6994;49.752;6.094;2023-06-14T01:00:36;4.22;;;3.83;;
13847;SDS011;6994;49.752;6.094;2023-06-14T01:03:03;6.22;;;4.37;;
13847;SDS011;6994;49.752;6.094;2023-06-14T01:05:31;4.82;;;4.40;;
13847;SDS011;6994;49.752;6.094;2023-06-14T01:10:47;4.53;;;4.07;;
13847;SDS011;6994;49.752;6.094;2023-06-14T01:13:20;5.57;;;4.25;;
13847;SDS011;6994;49.752;6.094;2023-06-14T01:15:47;4.95;;;3.87;;
13847;SDS011;6994;49.752;6.094;2023-06-14T01:18:15;6.82;;;5.20;;
13847;SDS011;6994;49.752;6.094;2023-06-14T01:20:45;5.05;;;4.47;;
13847;SDS011;6994;49.752;6.094;2023-06-14T01:23:12;6.28;;;4.50;;
13847;SDS011;6994;49.752;6.094;2023-06-14T01:25:39;5.12;;;4.62;;
13847;SDS011;6994;49.752;6.094;2023-06-14T01:28:06;6.00;;;4.45;;
13847;SDS011;6994;49.752;6.094;2023-06-14T01:30:34;7.45;;;5.65;;
13847;SDS011;6994;49.752;6.094;2023-06-14T01:33:01;8.82;;;4.97;;
13847;SDS011;6994;49.752;6.094;2023-06-14T01:35:28;4.50;;;4.10;;
13847;SDS011;6994;49.752;6.094;2023-06-14T01:37:55;7.97;;;4.45;;
13847;SDS011;6994;49.752;6.094;2023-06-14T01:40:22;4.40;;;3.92;;
13847;SDS011;6994;49.752;6.094;2023-06-14T01:42:50;5.72;;;5.10;;
13847;SDS011;6994;49.752;6.094;2023-06-14T01:45:17;6.78;;;4.62;;
13847;SDS011;6994;49.752;6.094;2023-06-14T01:47:45;7.30;;;4.55;;
13847;SDS011;6994;49.752;6.094;2023-06-14T01:50:13;6.72;;;4.72;;
13847;SDS011;6994;49.752;6.094;2023-06-14T01:52:41;6.47;;;4.78;;
13847;SDS011;6994;49.752;6.094;2023-06-14T01:55:08;5.05;;;4.28;;
13847;SDS011;6994;49.752;6.094;2023-06-14T01:57:35;6.95;;;4.72;;
13847;SDS011;6994;49.752;6.094;2023-06-14T02:00:03;5.97;;;5.05;;
13847;SDS011;6994;49.752;6.094;2023-06-14T02:02:35;6.57;;;4.87;;
13847;SDS011;6994;49.752;6.094;2023-06-14T02:05:02;5.30;;;4.80;;
13847;SDS011;6994;49.752;6.094;2023-06-14T02:07:29;7.20;;;4.30;;
13847;SDS011;6994;49.752;6.094;2023-06-14T02:09:57;7.30;;;4.72;;
13847;SDS011;6994;49.752;6.094;2023-06-14T02:12:24;6.03;;;4.62;;
13847;SDS011;6994;49.752;6.094;2023-06-14T02:14:52;6.82;;;4.85;;
13847;SDS011;6994;49.752;6.094;2023-06-14T02:17:19;5.05;;;4.55;;
13847;SDS011;6994;49.752;6.094;2023-06-14T02:19:46;4.85;;;4.35;;
13847;SDS011;6994;49.752;6.094;2023-06-14T02:22:15;6.53;;;4.20;;
13847;SDS011;6994;49.752;6.094;2023-06-14T02:24:41;5.62;;;4.97;;
13847;SDS011;6994;49.752;6.094;2023-06-14T02:27:09;5.82;;;4.28;;
13847;SDS011;6994;49.752;6.094;2023-06-14T02:29:38;4.78;;;4.35;;
13847;SDS011;6994;49.752;6.094;2023-06-14T02:32:06;6.00;;;4.95;;
13847;SDS011;6994;49.752;6.094;2023-06-14T02:34:36;7.18;;;4.75;;
13847;SDS011;6994;49.752;6.094;2023-06-14T02:37:04;4.65;;;4.05;;
13847;SDS011;6994;49.752;6.094;2023-06-14T02:39:31;5.78;;;4.53;;
13847;SDS011;6994;49.752;6.094;2023-06-14T02:41:58;4.43;;;4.03;;
13847;SDS011;6994;49.752;6.094;2023-06-14T02:44:25;6.95;;;4.28;;
13847;SDS011;6994;49.752;6.094;2023-06-14T02:46:53;5.78;;;4.50;;
13847;SDS011;6994;49.752;6.094;2023-06-14T02:49:20;5.87;;;4.25;;
13847;SDS011;6994;49.752;6.094;2023-06-14T02:51:47;6.47;;;5.03;;
13847;SDS011;6994;49.752;6.094;2023-06-14T02:54:14;5.80;;;4.87;;
13847;SDS011;6994;49.752;6.094;2023-06-14T02:56:41;5.80;;;4.72;;
13847;SDS011;6994;49.752;6.094;2023-06-14T02:59:09;5.28;;;4.75;;
13847;SDS011;6994;49.752;6.094;2023-06-14T03:01:36;5.12;;;4.60;;
13847;SDS011;6994;49.752;6.094;2023-06-14T03:04:04;5.32;;;4.80;;
13847;SDS011;6994;49.752;6.094;2023-06-14T03:06:32;6.32;;;4.43;;
13847;SDS011;6994;49.752;6.094;2023-06-14T03:08:59;5.43;;;4.47;;
13847;SDS011;6994;49.752;6.094;2023-06-14T03:11:26;7.95;;;4.72;;
13847;SDS011;6994;49.752;6.094;2023-06-14T03:13:53;5.53;;;4.95;;
13847;SDS011;6994;49.752;6.094;2023-06-14T03:16:20;7.22;;;5.03;;
13847;SDS011;6994;49.752;6.094;2023-06-14T03:18:48;5.90;;;5.25;;
13847;SDS011;6994;49.752;6.094;2023-06-14T03:21:15;5.03;;;4.53;;
13847;SDS011;6994;49.752;6.094;2023-06-14T03:23:42;6.05;;;5.20;;
13847;SDS011;6994;49.752;6.094;2023-06-14T03:26:09;5.65;;;5.07;;
13847;SDS011;6994;49.752;6.094;2023-06-14T03:28:36;6.47;;;5.78;;
13847;SDS011;6994;49.752;6.094;2023-06-14T03:31:04;5.03;;;4.35;;
13847;SDS011;6994;49.752;6.094;2023-06-14T03:33:31;6.43;;;4.65;;
13847;SDS011;6994;49.752;6.094;2023-06-14T03:35:58;6.37;;;4.87;;
13847;SDS011;6994;49.752;6.094;2023-06-14T03:38:25;5.30;;;4.80;;
13847;SDS011;6994;49.752;6.094;2023-06-14T03:40:53;6.53;;;5.12;;
13847;SDS011;6994;49.752;6.094;2023-06-14T03:43:20;5.35;;;4.82;;
13847;SDS011;6994;49.752;6.094;2023-06-14T03:45:48;5.65;;;4.82;;
13847;SDS011;6994;49.752;6.094;2023-06-14T03:48:15;8.02;;;5.20;;
13847;SDS011;6994;49.752;6.094;2023-06-14T03:50:42;6.43;;;4.80;;
13847;SDS011;6994;49.752;6.094;2023-06-14T03:53:09;6.55;;;5.45;;
13847;SDS011;6994;49.752;6.094;2023-06-14T03:55:36;5.28;;;4.68;;
13847;SDS011;6994;49.752;6.094;2023-06-14T03:58:04;5.95;;;5.28;;
13847;SDS011;6994;49.752;6.094;2023-06-14T04:00:31;6.37;;;4.78;;
13847;SDS011;6994;49.752;6.094;2023-06-14T04:02:58;5.93;;;5.32;;
13847;SDS011;6994;49.752;6.094;2023-06-14T04:05:25;5.70;;;4.47;;
13847;SDS011;6994;49.752;6.094;2023-06-14T04:07:53;5.37;;;4.43;;
13847;SDS011;6994;49.752;6.094;2023-06-14T04:10:20;5.68;;;4.57;;
13847;SDS011;6994;49.752;6.094;2023-06-14T04:12:47;6.07;;;5.18;;
13847;SDS011;6994;49.752;6.094;2023-06-14T04:15:14;5.93;;;4.50;;
13847;SDS011;6994;49.752;6.094;2023-06-14T04:17:45;6.47;;;4.87;;
13847;SDS011;6994;49.752;6.094;2023-06-14T04:20:09;5.18;;;4.60;;
13847;SDS011;6994;49.752;6.094;2023-06-14T04:22:37;5.62;;;5.12;;
13847;SDS011;6994;49.752;6.094;2023-06-14T04:25:04;6.03;;;5.45;;
13847;SDS011;6994;49.752;6.094;2023-06-14T04:27:31;5.32;;;4.32;;
13847;SDS011;6994;49.752;6.094;2023-06-14T04:29:58;6.87;;;4.85;;
13847;SDS011;6994;49.752;6.094;2023-06-14T04:32:25;5.45;;;4.82;;
13847;SDS011;6994;49.752;6.094;2023-06-14T04:34:56;6.25;;;5.30;;
13847;SDS011;6994;49.752;6.094;2023-06-14T04:37:23;10.82;;;5.12;;
13847;SDS011;6994;49.752;6.094;2023-06-14T04:39:50;6.60;;;5.43;;
13847;SDS011;6994;49.752;6.094;2023-06-14T04:42:18;6.28;;;5.32;;
13847;SDS011;6994;49.752;6.094;2023-06-14T04:44:45;8.93;;;4.90;;
13847;SDS011;6994;49.752;6.094;2023-06-14T04:47:12;6.18;;;5.10;;
13847;SDS011;6994;49.752;6.094;2023-06-14T04:49:40;5.47;;;4.53;;
13847;SDS011;6994;49.752;6.094;2023-06-14T04:52:08;5.05;;;4.55;;
13847;SDS011;6994;49.752;6.094;2023-06-14T04:54:35;5.07;;;4.55;;
13847;SDS011;6994;49.752;6.094;2023-06-14T04:57:04;7.18;;;4.80;;
13847;SDS011;6994;49.752;6.094;2023-06-14T04:59:32;7.15;;;4.60;;
13847;SDS011;6994;49.752;6.094;2023-06-14T05:01:59;8.27;;;4.97;;
13847;SDS011;6994;49.752;6.094;2023-06-14T05:04:26;7.68;;;4.55;;
13847;SDS011;6994;49.752;6.094;2023-06-14T05:06:53;6.32;;;4.37;;
13847;SDS011;6994;49.752;6.094;2023-06-14T05:09:23;7.22;;;4.47;;
13847;SDS011;6994;49.752;6.094;2023-06-14T05:11:50;7.15;;;5.12;;
13847;SDS011;6994;49.752;6.094;2023-06-14T05:14:18;7.95;;;4.97;;
13847;SDS011;6994;49.752;6.094;2023-06-14T05:16:45;4.85;;;4.35;;
13847;SDS011;6994;49.752;6.094;2023-06-14T05:19:12;5.57;;;4.37;;
13847;SDS011;6994;49.752;6.094;2023-06-14T05:21:39;4.30;;;3.95;;
13847;SDS011;6994;49.752;6.094;2023-06-14T05:24:06;5.70;;;4.93;;
13847;SDS011;6994;49.752;6.094;2023-06-14T05:26:33;4.65;;;4.22;;
13847;SDS011;6994;49.752;6.094;2023-06-14T05:29:01;8.85;;;5.22;;
13847;SDS011;6994;49.752;6.094;2023-06-14T05:31:29;5.22;;;4.75;;
13847;SDS011;6994;49.752;6.094;2023-06-14T05:33:56;5.65;;;5.00;;
13847;SDS011;6994;49.752;6.094;2023-06-14T05:36:23;6.53;;;5.10;;
13847;SDS011;6994;49.752;6.094;2023-06-14T05:38:50;5.55;;;4.82;;
13847;SDS011;6994;49.752;6.094;2023-06-14T05:41:17;6.78;;;4.78;;
13847;SDS011;6994;49.752;6.094;2023-06-14T05:43:45;5.97;;;5.37;;
13847;SDS011;6994;49.752;6.094;2023-06-14T05:46:12;5.10;;;4.60;;
13847;SDS011;6994;49.752;6.094;2023-06-14T05:48:39;9.93;;;5.30;;
13847;SDS011;6994;49.752;6.094;2023-06-14T05:51:06;4.68;;;4.22;;
13847;SDS011;6994;49.752;6.094;2023-06-14T05:53:34;5.32;;;4.75;;
13847;SDS011;6994;49.752;6.094;2023-06-14T05:56:01;5.82;;;5.22;;
13847;SDS011;6994;49.752;6.094;2023-06-14T05:58:28;5.45;;;4.90;;
13847;SDS011;6994;49.752;6.094;2023-06-14T06:00:55;5.28;;;4.78;;
13847;SDS011;6994;49.752;6.094;2023-06-14T06:03:23;6.57;;;4.90;;
13847;SDS011;6994;49.752;6.094;2023-06-14T06:05:50;5.93;;;5.30;;
13847;SDS011;6994;49.752;6.094;2023-06-14T06:08:18;6.57;;;5.43;;
13847;SDS011;6994;49.752;6.094;2023-06-14T06:10:45;8.10;;;5.05;;
13847;SDS011;6994;49.752;6.094;2023-06-14T06:13:12;7.47;;;4.90;;
13847;SDS011;6994;49.752;6.094;2023-06-14T06:15:39;4.50;;;4.10;;
13847;SDS011;6994;49.752;6.094;2023-06-14T06:18:06;4.05;;;3.75;;
13847;SDS011;6994;49.752;6.094;2023-06-14T06:20:34;4.80;;;3.55;;
13847;SDS011;6994;49.752;6.094;2023-06-14T06:23:01;3.67;;;3.37;;
13847;SDS011;6994;49.752;6.094;2023-06-14T06:25:28;3.97;;;3.50;;
13847;SDS011;6994;49.752;6.094;2023-06-14T06:27:55;5.30;;;3.58;;
13847;SDS011;6994;49.752;6.094;2023-06-14T06:30:22;4.00;;;3.50;;
13847;SDS011;6994;49.752;6.094;2023-06-14T06:32:50;4.20;;;3.60;;
13847;SDS011;6994;49.752;6.094;2023-06-14T06:35:18;4.00;;;3.60;;
13847;SDS011;6994;49.752;6.094;2023-06-14T06:37:46;3.47;;;3.17;;
13847;SDS011;6994;49.752;6.094;2023-06-14T06:40:14;3.83;;;3.22;;
13847;SDS011;6994;49.752;6.094;2023-06-14T06:42:42;3.83;;;3.37;;
13847;SDS011;6994;49.752;6.094;2023-06-14T06:45:09;4.70;;;3.53;;
13847;SDS011;6994;49.752;6.094;2023-06-14T06:47:37;3.70;;;3.35;;
13847;SDS011;6994;49.752;6.094;2023-06-14T06:50:04;5.12;;;3.42;;
13847;SDS011;6994;49.752;6.094;2023-06-14T06:52:31;3.37;;;3.08;;
13847;SDS011;6994;49.752;6.094;2023-06-14T06:54:59;4.15;;;3.10;;
13847;SDS011;6994;49.752;6.094;2023-06-14T06:57:27;5.68;;;3.30;;
13847;SDS011;6994;49.752;6.094;2023-06-14T06:59:55;3.95;;;3.10;;
13847;SDS011;6994;49.752;6.094;2023-06-14T07:02:22;5.25;;;3.65;;
13847;SDS011;6994;49.752;6.094;2023-06-14T07:04:49;4.72;;;3.83;;
13847;SDS011;6994;49.752;6.094;2023-06-14T07:07:17;6.72;;;3.62;;
13847;SDS011;6994;49.752;6.094;2023-06-14T07:09:44;3.50;;;3.20;;
13847;SDS011;6994;49.752;6.094;2023-06-14T07:12:11;4.32;;;3.62;;
13847;SDS011;6994;49.752;6.094;2023-06-14T07:14:38;3.97;;;3.33;;
13847;SDS011;6994;49.752;6.094;2023-06-14T07:17:05;5.62;;;3.45;;
13847;SDS011;6994;49.752;6.094;2023-06-14T07:19:33;3.22;;;2.97;;
13847;SDS011;6994;49.752;6.094;2023-06-14T07:22:00;4.68;;;3.30;;
13847;SDS011;6994;49.752;6.094;2023-06-14T07:24:28;3.85;;;3.55;;
13847;SDS011;6994;49.752;6.094;2023-06-14T07:26:56;4.32;;;3.50;;
13847;SDS011;6994;49.752;6.094;2023-06-14T07:29:23;3.22;;;2.92;;
13847;SDS011;6994;49.752;6.094;2023-06-14T07:31:50;5.95;;;3.03;;
13847;SDS011;6994;49.752;6.094;2023-06-14T07:34:18;4.50;;;2.80;;
13847;SDS011;6994;49.752;6.094;2023-06-14T07:36:45;5.78;;;3.47;;
13847;SDS011;6994;49.752;6.094;2023-06-14T07:39:13;3.30;;;3.00;;
13847;SDS011;6994;49.752;6.094;2023-06-14T07:41:40;6.97;;;2.85;;
13847;SDS011;6994;49.752;6.094;2023-06-14T07:44:07;3.67;;;3.03;;
13847;SDS011;6994;49.752;6.094;2023-06-14T07:46:34;4.50;;;3.58;;
13847;SDS011;6994;49.752;6.094;2023-06-14T07:49:01;4.65;;;3.08;;
13847;SDS011;6994;49.752;6.094;2023-06-14T07:51:29;3.20;;;2.90;;
13847;SDS011;6994;49.752;6.094;2023-06-14T07:53:56;5.60;;;3.20;;
13847;SDS011;6994;49.752;6.094;2023-06-14T07:56:23;3.35;;;2.90;;
13847;SDS011;6994;49.752;6.094;2023-06-14T07:58:51;3.10;;;2.80;;
13847;SDS011;6994;49.752;6.094;2023-06-14T08:01:19;5.80;;;2.95;;
13847;SDS011;6994;49.752;6.094;2023-06-14T08:03:47;3.83;;;3.10;;
13847;SDS011;6994;49.752;6.094;2023-06-14T08:06:14;5.03;;;2.92;;
13847;SDS011;6994;49.752;6.094;2023-06-14T08:08:41;4.20;;;2.70;;
13847;SDS011;6994;49.752;6.094;2023-06-14T08:11:09;4.68;;;3.20;;
13847;SDS011;6994;49.752;6.094;2023-06-14T08:13:36;3.37;;;3.08;;
13847;SDS011;6994;49.752;6.094;2023-06-14T08:16:03;3.30;;;2.95;;
13847;SDS011;6994;49.752;6.094;2023-06-14T08:18:30;3.70;;;2.78;;
13847;SDS011;6994;49.752;6.094;2023-06-14T08:20:57;3.22;;;3.00;;
13847;SDS011;6994;49.752;6.094;2023-06-14T08:23:25;4.43;;;3.30;;
13847;SDS011;6994;49.752;6.094;2023-06-14T08:25:52;3.20;;;2.90;;
13847;SDS011;6994;49.752;6.094;2023-06-14T08:28:19;5.05;;;2.65;;
13847;SDS011;6994;49.752;6.094;2023-06-14T08:30:46;3.25;;;2.95;;
13847;SDS011;6994;49.752;6.094;2023-06-14T08:33:13;3.47;;;3.00;;
13847;SDS011;6994;49.752;6.094;2023-06-14T08:35:41;3.12;;;2.83;;
13847;SDS011;6994;49.752;6.094;2023-06-14T08:38:10;3.10;;;2.80;;
13847;SDS011;6994;49.752;6.094;2023-06-14T08:40:36;4.68;;;3.05;;
13847;SDS011;6994;49.752;6.094;2023-06-14T08:43:03;7.85;;;3.17;;
13847;SDS011;6994;49.752;6.094;2023-06-14T08:45:30;3.33;;;3.03;;
13847;SDS011;6994;49.752;6.094;2023-06-14T08:47:57;3.87;;;2.72;;
13847;SDS011;6994;49.752;6.094;2023-06-14T08:50:25;3.40;;;3.10;;
13847;SDS011;6994;49.752;6.094;2023-06-14T08:52:59;4.87;;;3.17;;
13847;SDS011;6994;49.752;6.094;2023-06-14T08:55:29;3.15;;;2.85;;
13847;SDS011;6994;49.752;6.094;2023-06-14T08:57:56;3.45;;;2.87;;
13847;SDS011;6994;49.752;6.094;2023-06-14T09:00:26;3.30;;;2.97;;
13847;SDS011;6994;49.752;6.094;2023-06-14T09:02:53;2.83;;;2.62;;
13847;SDS011;6994;49.752;6.094;2023-06-14T09:05:23;3.00;;;2.80;;
13847;SDS011;6994;49.752;6.094;2023-06-14T09:07:53;6.45;;;3.45;;
13847;SDS011;6994;49.752;6.094;2023-06-14T09:10:20;5.60;;;3.35;;
13847;SDS011;6994;49.752;6.094;2023-06-14T09:12:47;5.28;;;3.08;;
13847;SDS011;6994;49.752;6.094;2023-06-14T09:15:15;3.53;;;3.22;;
13847;SDS011;6994;49.752;6.094;2023-06-14T09:17:43;3.55;;;2.87;;
13847;SDS011;6994;49.752;6.094;2023-06-14T09:20:11;3.83;;;2.75;;
13847;SDS011;6994;49.752;6.094;2023-06-14T09:22:41;4.12;;;3.12;;
13847;SDS011;6994;49.752;6.094;2023-06-14T09:25:08;4.47;;;3.28;;
13847;SDS011;6994;49.752;6.094;2023-06-14T09:27:35;3.58;;;2.72;;
13847;SDS011;6994;49.752;6.094;2023-06-14T09:30:03;3.05;;;2.75;;
13847;SDS011;6994;49.752;6.094;2023-06-14T09:32:29;3.47;;;2.90;;
13847;SDS011;6994;49.752;6.094;2023-06-14T09:34:57;4.07;;;2.70;;
13847;SDS011;6994;49.752;6.094;2023-06-14T09:37:31;3.50;;;3.20;;
13847;SDS011;6994;49.752;6.094;2023-06-14T09:39:58;3.40;;;3.10;;
13847;SDS011;6994;49.752;6.094;2023-06-14T09:42:25;4.68;;;3.33;;
13847;SDS011;6994;49.752;6.094;2023-06-14T09:44:53;3.15;;;2.85;;
13847;SDS011;6994;49.752;6.094;2023-06-14T09:47:19;3.70;;;3.40;;
13847;SDS011;6994;49.752;6.094;2023-06-14T09:49:47;3.75;;;2.78;;
13847;SDS011;6994;49.752;6.094;2023-06-14T09:52:17;2.90;;;2.60;;
13847;SDS011;6994;49.752;6.094;2023-06-14T09:54:42;4.75;;;2.85;;
13847;SDS011;6994;49.752;6.094;2023-06-14T09:57:11;2.92;;;2.72;;
13847;SDS011;6994;49.752;6.094;2023-06-14T09:59:44;4.28;;;2.92;;
13847;SDS011;6994;49.752;6.094;2023-06-14T10:02:11;3.50;;;3.22;;
13847;SDS011;6994;49.752;6.094;2023-06-14T10:04:38;3.12;;;2.83;;
13847;SDS011;6994;49.752;6.094;2023-06-14T10:07:05;3.20;;;2.10;;
13847;SDS011;6994;49.752;6.094;2023-06-14T10:09:32;2.72;;;2.50;;
13847;SDS011;6994;49.752;6.094;2023-06-14T10:11:59;3.60;;;2.40;;
13847;SDS011;6994;49.752;6.094;2023-06-14T10:14:26;4.28;;;2.17;;
13847;SDS011;6994;49.752;6.094;2023-06-14T10:19:46;3.17;;;2.65;;
13847;SDS011;6994;49.752;6.094;2023-06-14T10:22:19;3.30;;;2.42;;
13847;SDS011;6994;49.752;6.094;2023-06-14T10:24:45;4.53;;;2.83;;
13847;SDS011;6994;49.752;6.094;2023-06-14T10:27:15;3.20;;;2.70;;
13847;SDS011;6994;49.752;6.094;2023-06-14T10:32:24;3.37;;;2.58;;
13847;SDS011;6994;49.752;6.094;2023-06-14T10:34:58;3.30;;;3.00;;
13847;SDS011;6994;49.752;6.094;2023-06-14T10:37:24;2.47;;;2.28;;
13847;SDS011;6994;49.752;6.094;2023-06-14T10:39:52;3.08;;;2.78;;
13847;SDS011;6994;49.752;6.094;2023-06-14T10:42:23;4.72;;;2.75;;
13847;SDS011;6994;49.752;6.094;2023-06-14T10:44:50;3.60;;;2.40;;
13847;SDS011;6994;49.752;6.094;2023-06-14T10:47:23;2.60;;;2.40;;
13847;SDS011;6994;49.752;6.094;2023-06-14T10:49:57;4.00;;;3.08;;
13847;SDS011;6994;49.752;6.094;2023-06-14T10:52:24;2.60;;;2.40;;
13847;SDS011;6994;49.752;6.094;2023-06-14T10:54:59;3.78;;;2.95;;
13847;SDS011;6994;49.752;6.094;2023-06-14T10:57:30;3.17;;;2.87;;
13847;SDS011;6994;49.752;6.094;2023-06-14T10:59:57;2.85;;;2.58;;
13847;SDS011;6994;49.752;6.094;2023-06-14T11:02:34;2.92;;;2.70;;
13847;SDS011;6994;49.752;6.094;2023-06-14T11:04:54;3.60;;;2.75;;
13847;SDS011;6994;49.752;6.094;2023-06-14T11:07:31;2.50;;;2.30;;
13847;SDS011;6994;49.752;6.094;2023-06-14T11:10:05;3.45;;;2.87;;
13847;SDS011;6994;49.752;6.094;2023-06-14T11:12:31;3.60;;;2.70;;
13847;SDS011;6994;49.752;6.094;2023-06-14T11:14:58;4.32;;;2.83;;
13847;SDS011;6994;49.752;6.094;2023-06-14T11:17:25;3.33;;;2.83;;
13847;SDS011;6994;49.752;6.094;2023-06-14T11:20:07;4.12;;;2.65;;
13847;SDS011;6994;49.752;6.094;2023-06-14T11:22:39;6.62;;;3.53;;
13847;SDS011;6994;49.752;6.094;2023-06-14T11:25:08;2.87;;;2.53;;
13847;SDS011;6994;49.752;6.094;2023-06-14T11:27:36;3.62;;;2.90;;
13847;SDS011;6994;49.752;6.094;2023-06-14T11:30:06;3.10;;;2.90;;
13847;SDS011;6994;49.752;6.094;2023-06-14T11:32:31;3.12;;;2.58;;
13847;SDS011;6994;49.752;6.094;2023-06-14T11:34:58;3.00;;;2.80;;
13847;SDS011;6994;49.752;6.094;2023-06-14T11:37:26;3.70;;;2.67;;
13847;SDS011;6994;49.752;6.094;2023-06-14T11:39:52;5.00;;;3.00;;
13847;SDS011;6994;49.752;6.094;2023-06-14T11:42:20;3.25;;;2.83;;
13847;SDS011;6994;49.752;6.094;2023-06-14T11:44:47;2.92;;;2.72;;
13847;SDS011;6994;49.752;6.094;2023-06-14T11:47:14;5.72;;;2.80;;
13847;SDS011;6994;49.752;6.094;2023-06-14T11:49:42;2.90;;;2.70;;
13847;SDS011;6994;49.752;6.094;2023-06-14T11:52:10;3.67;;;2.97;;
13847;SDS011;6994;49.752;6.094;2023-06-14T11:54:38;3.42;;;2.92;;
13847;SDS011;6994;49.752;6.094;2023-06-14T11:57:05;6.22;;;3.37;;
13847;SDS011;6994;49.752;6.094;2023-06-14T11:59:32;4.53;;;4.12;;
13847;SDS011;6994;49.752;6.094;2023-06-14T12:01:59;3.97;;;3.50;;
13847;SDS011;6994;49.752;6.094;2023-06-14T12:04:27;3.80;;;3.50;;
13847;SDS011;6994;49.752;6.094;2023-06-14T12:06:54;3.70;;;3.40;;
13847;SDS011;6994;49.752;6.094;2023-06-14T12:09:21;3.97;;;3.67;;
13847;SDS011;6994;49.752;6.094;2023-06-14T12:11:48;3.45;;;3.15;;
13847;SDS011;6994;49.752;6.094;2023-06-14T12:14:15;3.30;;;3.00;;
13847;SDS011;6994;49.752;6.094;2023-06-14T12:16:43;3.10;;;2.80;;
13847;SDS011;6994;49.752;6.094;2023-06-14T12:19:14;3.10;;;2.90;;
13847;SDS011;6994;49.752;6.094;2023-06-14T12:21:41;3.85;;;3.42;;
13847;SDS011;6994;49.752;6.094;2023-06-14T12:24:08;4.43;;;3.30;;
13847;SDS011;6994;49.752;6.094;2023-06-14T12:26:37;3.90;;;3.60;;
13847;SDS011;6994;49.752;6.094;2023-06-14T12:29:04;2.92;;;2.70;;
13847;SDS011;6994;49.752;6.094;2023-06-14T12:31:29;2.90;;;2.70;;
13847;SDS011;6994;49.752;6.094;2023-06-14T12:33:57;4.18;;;3.12;;
13847;SDS011;6994;49.752;6.094;2023-06-14T12:36:24;4.47;;;3.20;;
13847;SDS011;6994;49.752;6.094;2023-06-14T12:38:51;3.15;;;2.80;;
13847;SDS011;6994;49.752;6.094;2023-06-14T12:41:21;3.40;;;2.78;;
13847;SDS011;6994;49.752;6.094;2023-06-14T12:43:49;3.45;;;3.15;;
13847;SDS011;6994;49.752;6.094;2023-06-14T12:46:17;4.12;;;3.83;;
13847;SDS011;6994;49.752;6.094;2023-06-14T12:48:45;3.30;;;3.00;;
13847;SDS011;6994;49.752;6.094;2023-06-14T12:51:12;3.58;;;3.28;;
13847;SDS011;6994;49.752;6.094;2023-06-14T12:53:39;2.90;;;2.70;;
13847;SDS011;6994;49.752;6.094;2023-06-14T12:56:06;3.40;;;3.10;;
13847;SDS011;6994;49.752;6.094;2023-06-14T12:58:34;6.57;;;3.05;;
13847;SDS011;6994;49.752;6.094;2023-06-14T13:01:01;3.22;;;3.03;;
13847;SDS011;6994;49.752;6.094;2023-06-14T13:03:28;3.77;;;3.43;;
13847;SDS011;6994;49.752;6.094;2023-06-14T13:08:04;3.75;;;3.42;;
13847;SDS011;6994;49.752;6.094;2023-06-14T13:10:31;3.50;;;3.30;;
13847;SDS011;6994;49.752;6.094;2023-06-14T13:12:59;3.80;;;3.50;;
13847;SDS011;6994;49.752;6.094;2023-06-14T13:15:27;3.95;;;3.65;;
13847;SDS011;6994;49.752;6.094;2023-06-14T13:17:54;4.05;;;3.75;;
13847;SDS011;6994;49.752;6.094;2023-06-14T13:20:22;3.70;;;3.40;;
13847;SDS011;6994;49.752;6.094;2023-06-14T13:22:50;4.18;;;3.87;;
13847;SDS011;6994;49.752;6.094;2023-06-14T13:25:17;3.55;;;3.30;;
13847;SDS011;6994;49.752;6.094;2023-06-14T13:27:44;3.42;;;3.22;;
13847;SDS011;6994;49.752;6.094;2023-06-14T13:30:11;3.55;;;3.35;;
13847;SDS011;6994;49.752;6.094;2023-06-14T13:32:39;3.90;;;3.55;;
13847;SDS011;6994;49.752;6.094;2023-06-14T13:35:06;4.35;;;4.05;;
13847;SDS011;6994;49.752;6.094;2023-06-14T13:37:33;4.12;;;3.83;;
13847;SDS011;6994;49.752;6.094;2023-06-14T13:40:00;3.45;;;3.25;;
13847;SDS011;6994;49.752;6.094;2023-06-14T13:42:28;4.12;;;3.42;;
13847;SDS011;6994;49.752;6.094;2023-06-14T13:44:56;5.15;;;3.75;;
13847;SDS011;6994;49.752;6.094;2023-06-14T13:47:24;3.95;;;3.50;;
13847;SDS011;6994;49.752;6.094;2023-06-14T13:49:51;4.05;;;3.75;;
13847;SDS011;6994;49.752;6.094;2023-06-14T13:52:19;3.85;;;3.65;;
13847;SDS011;6994;49.752;6.094;2023-06-14T13:54:46;4.10;;;3.70;;
13847;SDS011;6994;49.752;6.094;2023-06-14T13:57:13;4.30;;;3.30;;
13847;SDS011;6994;49.752;6.094;2023-06-14T13:59:40;3.25;;;2.87;;
13847;SDS011;6994;49.752;6.094;2023-06-14T14:02:07;3.70;;;3.45;;
13847;SDS011;6994;49.752;6.094;2023-06-14T14:04:35;4.07;;;3.30;;
13847;SDS011;6994;49.752;6.094;2023-06-14T14:07:02;3.50;;;3.20;;
13847;SDS011;6994;49.752;6.094;2023-06-14T14:09:29;3.45;;;3.15;;
13847;SDS011;6994;49.752;6.094;2023-06-14T14:11:56;4.37;;;3.15;;
13847;SDS011;6994;49.752;6.094;2023-06-14T14:14:23;3.83;;;3.53;;
13847;SDS011;6994;49.752;6.094;2023-06-14T14:16:51;3.40;;;3.10;;
13847;SDS011;6994;49.752;6.094;2023-06-14T14:19:18;4.35;;;3.10;;
13847;SDS011;6994;49.752;6.094;2023-06-14T14:21:45;3.83;;;3.23;;
13847;SDS011;6994;49.752;6.094;2023-06-14T14:24:12;3.65;;;3.00;;
13847;SDS011;6994;49.752;6.094;2023-06-14T14:26:39;4.55;;;3.20;;
13847;SDS011;6994;49.752;6.094;2023-06-14T14:29:07;3.20;;;2.92;;
13847;SDS011;6994;49.752;6.094;2023-06-14T14:31:34;4.05;;;3.37;;
13847;SDS011;6994;49.752;6.094;2023-06-14T14:34:01;2.92;;;2.80;;
13847;SDS011;6994;49.752;6.094;2023-06-14T14:36:28;5.85;;;2.92;;
13847;SDS011;6994;49.752;6.094;2023-06-14T14:38:56;5.32;;;3.12;;
13847;SDS011;6994;49.752;6.094;2023-06-14T14:41:24;3.53;;;3.20;;
13847;SDS011;6994;49.752;6.094;2023-06-14T14:43:52;3.35;;;3.15;;
13847;SDS011;6994;49.752;6.094;2023-06-14T14:46:19;3.92;;;3.62;;
13847;SDS011;6994;49.752;6.094;2023-06-14T14:48:47;3.37;;;3.08;;
13847;SDS011;6994;49.752;6.094;2023-06-14T14:51:14;3.50;;;3.30;;
13847;SDS011;6994;49.752;6.094;2023-06-14T14:53:41;3.72;;;3.35;;
13847;SDS011;6994;49.752;6.094;2023-06-14T14:56:08;3.17;;;2.97;;
13847;SDS011;6994;49.752;6.094;2023-06-14T14:58:35;3.53;;;3.33;;
13847;SDS011;6994;49.752;6.094;2023-06-14T15:01:03;3.85;;;3.55;;
13847;SDS011;6994;49.752;6.094;2023-06-14T15:03:30;3.70;;;3.40;;
13847;SDS011;6994;49.752;6.094;2023-06-14T15:05:57;4.15;;;3.40;;
13847;SDS011;6994;49.752;6.094;2023-06-14T15:08:25;3.00;;;2.80;;
13847;SDS011;6994;49.752;6.094;2023-06-14T15:10:53;2.62;;;2.42;;
13847;SDS011;6994;49.752;6.094;2023-06-14T15:13:21;3.20;;;3.03;;